Time;durP1;ratioP1;P1;durP2;ratioP2;P2;SDS_P1;SDS_P2;PMS_P1;PMS_P2;Temp;Humidity;BMP_temperature;BMP_pressure;BME280_temperature;BME280_humidity;BME280_pressure;Samples;Min_cycle;Max_cycle;Signal;HPM_P1;HPM_P2
2024/04/19 00:01:32;;;;;;;;;;;;;;;10.24;69.36;100934.97;5482407;25;94873;-72
2024/04/19 00:04:00;;;;;;;1.40;1.00;;;;;;;10.03;70.46;100932.94;5487832;25;95912;-71
2024/04/19 00:06:31;;;;;;;3.90;0.98;;;;;;;10.12;70.96;100928.22;5488980;25;96913;-72
2024/04/19 00:08:56;;;;;;;5.18;1.20;;;;;;;10.39;69.40;100927.41;5467656;25;94713;-71
2024/04/19 00:11:24;;;;;;;;;;;;;;;10.52;69.51;100929.66;5478253;25;95046;-72
2024/04/19 00:13:50;;;;;;;3.63;1.13;;;;;;;10.22;70.43;100934.16;5483903;25;94783;-72
2024/04/19 00:16:18;;;;;;;;;;;;;;;10.31;70.47;100921.50;5485945;25;96404;-72
2024/04/19 00:18:43;;;;;;;2.75;1.40;;;;;;;10.65;68.57;100923.91;5486087;25;95040;-71
2024/04/19 00:21:11;;;;;;;;;;;;;;;10.53;69.36;100921.69;5493420;25;94856;-71
2024/04/19 00:23:40;;;;;;;2.20;1.17;;;;;;;10.60;69.25;100925.84;5485498;25;96772;-71
2024/04/19 00:26:09;;;;;;;4.03;1.50;;;;;;;10.52;69.45;100919.94;5497644;25;95822;-71
2024/04/19 00:28:34;;;;;;;4.93;1.33;;;;;;;10.59;69.49;100910.91;5476561;25;95271;-72
2024/04/19 00:31:02;;;;;;;;;;;;;;;10.64;69.04;100916.03;5474071;25;95936;-72
2024/04/19 00:33:27;;;;;;;3.35;1.45;;;;;;;10.75;68.32;100913.94;5472891;25;100186;-71
2024/04/19 00:35:55;;;;;;;;;;;;;;;10.76;68.38;100903.28;5471486;25;96245;-72
2024/04/19 00:38:21;;;;;;;2.38;1.25;;;;;;;11.11;66.76;100899.44;5470953;25;94827;-71
2024/04/19 00:40:51;;;;;;;;;;;;;;;11.12;66.85;100895.00;5467385;25;96406;-71
2024/04/19 00:43:17;;;;;;;5.00;1.20;;;;;;;10.83;66.57;100898.66;5472071;25;97053;-72
2024/04/19 00:45:45;;;;;;;;;;;;;;;10.54;67.82;100902.28;5484402;25;96968;-72
2024/04/19 00:48:12;;;;;;;2.78;1.27;;;;;;;10.61;67.62;100895.00;5470283;25;94912;-72
2024/04/19 00:50:41;;;;;;;6.30;1.30;;;;;;;10.71;67.27;100894.66;5470642;25;94808;-72
2024/04/19 00:53:07;;;;;;;4.00;1.40;;;;;;;10.89;66.44;100898.47;5474671;25;99924;-73
2024/04/19 00:55:37;;;;;;;5.70;1.65;;;;;;;10.85;66.04;100895.97;5464708;25;96331;-73
2024/04/19 00:58:05;;;;;;;3.97;1.10;;;;;;;11.04;65.28;100892.63;5460014;25;96160;-73
2024/04/19 01:00:33;;;;;;;3.45;1.13;;;;;;;10.64;66.36;100885.19;5474719;25;95176;-73
2024/04/19 01:02:59;;;;;;;2.25;1.25;;;;;;;10.42;67.35;100881.56;5476680;25;95684;-73
2024/04/19 01:05:27;;;;;;;;;;;;;;;10.77;67.17;100878.56;5476594;25;97276;-72
2024/04/19 01:07:53;;;;;;;6.00;1.63;;;;;;;10.78;66.08;100872.38;5474157;25;94808;-72
2024/04/19 01:10:21;;;;;;;;;;;;;;;10.49;67.75;100869.00;5477728;25;95060;-73
2024/04/19 01:12:46;;;;;;;9.23;1.40;;;;;;;10.60;67.26;100870.38;5465284;25;99035;-73
2024/04/19 01:15:20;;;;;;;;;;;;;;;10.65;66.91;100865.78;5477060;25;96835;-73
2024/04/19 01:17:46;;;;;;;6.97;1.40;;;;;;;10.57;67.17;100865.16;5466685;25;94865;-72
2024/04/19 01:20:14;;;;;;;;;;;;;;;10.83;66.37;100863.44;5477287;25;94794;-72
2024/04/19 01:22:42;;;;;;;7.32;1.25;;;;;;;10.88;65.41;100858.84;5461920;25;99513;-73
2024/04/19 01:25:14;;;;;;;4.10;0.98;;;;;;;10.47;67.05;100847.91;5466353;25;98328;-73
2024/04/19 01:27:42;;;;;;;6.65;1.40;;;;;;;10.34;68.13;100846.59;5466865;25;94826;-73
2024/04/19 01:30:11;;;;;;;5.15;1.52;;;;;;;10.38;67.71;100842.91;5474945;25;95154;-73
2024/04/19 01:32:37;;;;;;;6.55;1.40;;;;;;;10.47;67.55;100836.47;5465272;25;94846;-73
2024/04/19 01:35:05;;;;;;;4.65;1.35;;;;;;;10.64;67.30;100840.28;5464888;25;96855;-72
2024/04/19 01:37:30;;;;;;;5.72;1.50;;;;;;;10.50;67.37;100836.41;5461418;25;94852;-73
2024/04/19 01:39:58;;;;;;;;;;;;;;;10.75;66.47;100832.84;5477465;25;97223;-73
2024/04/19 01:42:24;;;;;;;5.85;1.25;;;;;;;10.39;67.27;100821.75;5463632;25;99939;-73
2024/04/19 01:44:56;;;;;;;;;;;;;;;10.20;68.72;100822.41;5477453;25;100976;-72
2024/04/19 01:47:21;;;;;;;3.40;1.20;;;;;;;10.28;68.42;100812.47;5472938;25;94756;-72
2024/04/19 01:49:49;;;;;;;;;;;;;;;10.09;69.25;100808.66;5478367;25;94937;-72
2024/04/19 01:52:17;;;;;;;5.50;1.50;;;;;;;10.17;69.34;100810.19;5477525;25;99261;-71
2024/04/19 01:54:42;;;;;;;26.75;1.58;;;;;;;10.27;68.75;100808.97;5465217;25;96839;-72
2024/04/19 01:57:10;;;;;;;;;;;;;;;10.62;68.25;100804.25;5474399;25;95985;-72
2024/04/19 01:59:36;;;;;;;8.23;1.58;;;;;;;10.28;70.16;100794.84;5472621;25;94901;-72
2024/04/19 02:02:06;;;;;;;;;;;;;;;10.36;69.43;100792.81;5478882;25;95529;-71
2024/04/19 02:04:32;;;;;;;5.95;1.60;;;;;;;10.48;69.19;100785.38;5473601;25;97176;-72
2024/04/19 02:07:00;;;;;;;;;;;;;;;10.51;69.27;100790.53;5485507;25;97242;-72
2024/04/19 02:09:27;;;;;;;4.60;1.40;;;;;;;10.61;69.06;100786.69;5486477;25;94966;-72
2024/04/19 02:11:55;;;;;;;5.55;2.28;;;;;;;10.47;69.57;100779.22;5485689;25;99528;-73
2024/04/19 02:14:20;;;;;;;4.15;1.50;;;;;;;10.58;69.33;100771.78;5481652;25;97171;-71
2024/04/19 02:16:48;;;;;;;;;;;;;;;10.40;70.41;100772.41;5482591;25;94641;-73
2024/04/19 02:19:16;;;;;;;7.45;1.50;;;;;;;10.48;70.56;100766.88;5495178;25;94895;-74
2024/04/19 02:21:44;;;;;;;2.53;1.42;;;;;;;10.56;69.87;100767.47;5482984;25;97052;-74
2024/04/19 02:24:10;;;;;;;4.25;1.20;;;;;;;10.56;69.64;100754.28;5494490;25;97350;-74
2024/04/19 02:26:38;;;;;;;;;;;;;;;10.43;69.87;100750.34;5484322;25;95481;-72
2024/04/19 02:31:50;;;;;;;5.03;1.48;;;;;;;9.86;72.94;100746.91;5478934;25;95846;-72
2024/04/19 02:34:20;;;;;;;5.53;1.55;;;;;;;9.57;74.12;100741.72;5474698;25;97196;-72
2024/04/19 02:36:48;;;;;;;5.28;1.65;;;;;;;9.94;72.74;100730.81;5471562;25;94786;-73
2024/04/19 02:39:14;;;;;;;3.85;1.50;;;;;;;10.00;72.30;100720.94;5479034;25;94823;-73
2024/04/19 02:41:42;;;;;;;;;;;;;;;9.89;72.52;100720.44;5480544;25;97240;-72
2024/04/19 02:44:11;;;;;;;4.57;1.48;;;;;;;9.77;72.60;100715.56;5475612;25;96696;-73
2024/04/19 02:46:39;;;;;;;3.70;1.42;;;;;;;10.00;71.60;100714.78;5472569;25;95186;-73
2024/04/19 02:49:06;;;;;;;3.53;1.33;;;;;;;10.07;70.68;100715.44;5478564;25;94877;-73
2024/04/19 02:51:37;;;;;;;6.75;1.50;;;;;;;10.17;70.62;100699.28;5480042;25;100525;-72
2024/04/19 02:54:05;;;;;;;7.53;1.88;;;;;;;10.20;70.11;100704.44;5468150;25;97175;-72
2024/04/19 02:56:33;;;;;;;6.90;1.80;;;;;;;10.34;69.76;100694.25;5473939;25;95190;-73
2024/04/19 02:59:00;;;;;;;7.43;1.60;;;;;;;10.47;68.73;100693.81;5477336;25;97380;-73
2024/04/19 03:01:28;;;;;;;5.65;1.67;;;;;;;10.53;68.36;100683.91;5476146;25;97544;-73
2024/04/19 03:03:57;;;;;;;7.10;1.63;;;;;;;10.14;69.84;100685.28;5473332;25;96869;-73
2024/04/19 03:06:24;;;;;;;6.15;2.05;;;;;;;10.34;68.64;100682.84;5462712;25;94701;-73
2024/04/19 03:08:55;;;;;;;8.43;1.63;;;;;;;10.48;68.24;100671.78;5477752;25;94970;-72
2024/04/19 03:11:25;;;;;;;6.03;1.25;;;;;;;10.51;67.76;100664.59;5475240;25;97055;-73
2024/04/19 03:13:53;;;;;;;7.00;1.45;;;;;;;10.69;67.02;100656.00;5475039;25;97192;-73
2024/04/19 03:16:21;;;;;;;4.15;1.40;;;;;;;10.88;66.41;100663.25;5478551;25;94761;-73
2024/04/19 03:18:49;;;;;;;5.15;1.40;;;;;;;10.83;65.95;100666.03;5475464;25;94984;-73
2024/04/19 03:21:17;;;;;;;6.85;1.42;;;;;;;10.67;66.08;100654.31;5472328;25;97333;-74
2024/04/19 03:23:45;;;;;;;6.82;1.27;;;;;;;10.85;66.24;100652.75;5467697;25;95863;-73
2024/04/19 03:26:16;;;;;;;5.57;1.20;;;;;;;10.76;66.25;100644.25;5480572;25;94715;-74
2024/04/19 03:28:44;;;;;;;8.48;1.50;;;;;;;10.82;65.79;100642.31;5476599;25;97024;-73
2024/04/19 03:31:12;;;;;;;8.35;1.45;;;;;;;10.89;65.61;100633.25;5477148;25;96828;-73
2024/04/19 03:33:40;;;;;;;2.60;1.23;;;;;;;10.77;65.19;100635.41;5477335;25;96581;-72
2024/04/19 03:36:09;;;;;;;6.85;1.08;;;;;;;10.69;65.39;100626.06;5479263;25;95758;-72
2024/04/19 03:38:37;;;;;;;3.65;1.30;;;;;;;10.62;65.97;100628.09;5478980;25;95084;-73
2024/04/19 03:41:08;;;;;;;5.90;1.70;;;;;;;10.89;64.63;100633.25;5478336;25;97219;-72
2024/04/19 03:45:40;;;;;;;6.38;1.20;;;;;;;10.63;65.08;100621.03;5475183;25;97215;-72
2024/04/19 03:46:28;;;;;;;7.93;1.10;;;;;;;10.79;64.93;100625.66;5464422;25;95105;-72
2024/04/19 03:48:56;;;;;;;;;;;;;;;10.77;64.78;100616.91;5468133;25;96943;-72
2024/04/19 03:51:24;;;;;;;9.00;1.42;;;;;;;10.69;64.63;100607.56;5474592;25;99053;-73
2024/04/19 03:53:52;;;;;;;21.40;2.35;;;;;;;10.85;64.59;100607.81;5477154;25;95846;-73
2024/04/19 03:56:20;;;;;;;9.07;2.05;;;;;;;10.94;64.02;100602.19;5480329;25;95661;-72
2024/04/19 03:58:51;;;;;;;9.02;1.98;;;;;;;10.87;64.48;100598.06;5488519;25;96535;-72
2024/04/19 04:01:19;;;;;;;8.50;1.38;;;;;;;10.93;64.34;100592.53;5485856;25;96937;-72
2024/04/19 04:03:47;;;;;;;5.82;1.38;;;;;;;10.88;64.39;100589.22;5501317;25;97214;-72
2024/04/19 04:06:17;;;;;;;4.10;1.20;;;;;;;10.64;64.86;100585.72;5485247;25;94787;-72
2024/04/19 04:08:45;;;;;;;2.85;1.38;;;;;;;10.87;64.26;100588.34;5500086;25;95293;-72
2024/04/19 04:11:13;;;;;;;5.05;1.30;;;;;;;10.72;65.06;100576.59;5479224;25;97167;-73
2024/04/19 04:13:41;;;;;;;5.75;1.42;;;;;;;10.82;64.56;100581.53;5488562;25;95686;-73
2024/04/19 04:16:12;;;;;;;6.95;1.48;;;;;;;10.77;64.70;100581.69;5486665;25;95093;-75
2024/04/19 04:18:40;;;;;;;3.10;1.40;;;;;;;10.73;64.46;100575.69;5486226;25;94945;-74
2024/04/19 04:21:08;;;;;;;5.15;1.52;;;;;;;10.72;65.09;100573.09;5482264;25;99543;-74
2024/04/19 04:23:36;;;;;;;6.97;1.90;;;;;;;10.41;66.24;100573.41;5474878;25;96892;-75
2024/04/19 04:26:04;;;;;;;9.32;1.95;;;;;;;10.64;65.37;100570.72;5484691;25;95394;-74
2024/04/19 04:28:32;;;;;;;6.50;1.90;;;;;;;10.61;65.40;100570.00;5493108;25;95045;-74
2024/04/19 04:31:00;;;;;;;8.13;1.65;;;;;;;10.78;64.92;100560.50;5485228;25;97181;-75
2024/04/19 04:33:31;;;;;;;7.00;2.15;;;;;;;10.78;64.47;100565.78;5473271;25;97268;-73
2024/04/19 04:35:59;;;;;;;3.78;2.05;;;;;;;10.68;64.84;100559.13;5462554;25;95896;-75
2024/04/19 04:38:27;;;;;;;9.35;2.00;;;;;;;10.67;65.20;100554.78;5468990;25;95778;-74
2024/04/19 04:40:55;;;;;;;6.63;2.03;;;;;;;10.70;65.24;100554.63;5479252;25;96824;-74
2024/04/19 04:43:23;;;;;;;7.28;2.33;;;;;;;10.53;65.30;100551.78;5474816;25;94874;-73
2024/04/19 04:45:51;;;;;;;9.45;2.55;;;;;;;10.64;65.55;100544.31;5482321;25;97573;-73
2024/04/19 04:48:19;;;;;;;7.75;2.28;;;;;;;11.04;64.02;100548.88;5476274;25;95025;-73
2024/04/19 04:50:50;;;;;;;6.75;2.08;;;;;;;10.94;64.50;100539.59;5478536;25;96890;-72
2024/04/19 04:53:18;;;;;;;5.47;2.20;;;;;;;10.92;64.20;100532.66;5472913;25;96804;-71
2024/04/19 04:55:46;;;;;;;7.45;2.50;;;;;;;11.08;63.58;100537.28;5480690;25;94786;-72
2024/04/19 04:58:14;;;;;;;5.63;2.40;;;;;;;11.00;63.79;100520.00;5475869;25;94733;-72
2024/04/19 05:00:42;;;;;;;8.15;2.53;;;;;;;11.01;64.32;100522.59;5463413;25;97650;-73
2024/04/19 05:03:11;;;;;;;6.72;2.67;;;;;;;11.12;63.60;100517.69;5470333;25;97063;-74
2024/04/19 05:05:39;;;;;;;4.28;2.47;;;;;;;11.20;63.68;100509.44;5485291;25;94826;-72
2024/04/19 05:08:10;;;;;;;5.82;2.33;;;;;;;11.13;63.61;100505.34;5468691;25;94836;-72
2024/04/19 05:10:38;;;;;;;9.60;2.17;;;;;;;10.73;65.56;100499.03;5480238;25;97033;-72
2024/04/19 05:13:06;;;;;;;7.93;2.92;;;;;;;11.08;64.72;100507.31;5471743;25;95810;-72
2024/04/19 05:15:34;;;;;;;7.63;2.95;;;;;;;10.94;64.91;100499.09;5473922;25;94675;-71
2024/04/19 05:18:02;;;;;;;9.57;2.90;;;;;;;10.92;65.11;100493.00;5461573;25;94916;-73
2024/04/19 05:20:30;;;;;;;7.55;2.78;;;;;;;11.21;64.41;100490.03;5472958;25;96945;-73
2024/04/19 05:22:56;;;;;;;9.23;2.92;;;;;;;11.11;64.50;100483.38;5465360;25;96891;-72
2024/04/19 05:25:26;;;;;;;;;;;;;;;11.40;63.90;100479.50;5472694;25;95025;-73
2024/04/19 05:27:52;;;;;;;7.80;2.88;;;;;;;11.56;62.52;100473.47;5476793;25;94923;-74
2024/04/19 05:30:20;;;;;;;;;;;;;;;11.53;62.94;100462.19;5474782;25;100351;-74
2024/04/19 05:32:48;;;;;;;8.52;3.13;;;;;;;11.71;62.12;100460.50;5475642;25;100203;-73
2024/04/19 05:35:16;;;;;;;10.05;3.03;;;;;;;11.39;63.36;100465.44;5472311;25;96272;-72
2024/04/19 05:37:44;;;;;;;7.18;2.85;;;;;;;11.28;63.47;100450.94;5465107;25;94967;-72
2024/04/19 05:40:13;;;;;;;5.43;3.15;;;;;;;11.22;64.39;100441.50;5473016;25;99306;-72
2024/04/19 05:42:43;;;;;;;4.25;2.70;;;;;;;10.97;65.31;100438.16;5466960;25;95884;-74
2024/04/19 05:45:12;;;;;;;13.20;3.42;;;;;;;11.53;64.19;100431.28;5472834;25;97034;-72
2024/04/19 05:47:41;;;;;;;8.10;3.15;;;;;;;11.46;63.96;100419.25;5471691;25;95799;-73
2024/04/19 05:50:09;;;;;;;10.95;3.17;;;;;;;11.53;64.06;100419.84;5467453;25;94922;-72
2024/04/19 05:52:38;;;;;;;7.25;3.28;;;;;;;11.62;63.47;100413.28;5470397;25;97161;-71
2024/04/19 05:55:06;;;;;;;6.82;3.15;;;;;;;11.81;64.05;100415.06;5471541;25;95407;-73
2024/04/19 05:57:35;;;;;;;8.05;3.28;;;;;;;11.74;63.24;100403.03;5488108;25;94948;-72
2024/04/19 06:00:06;;;;;;;11.40;3.38;;;;;;;11.90;63.67;100411.97;5477704;25;96094;-73
2024/04/19 06:02:34;;;;;;;7.72;3.10;;;;;;;11.42;65.22;100416.81;5470278;25;96853;-73
2024/04/19 06:05:03;;;;;;;7.68;3.13;;;;;;;11.48;65.31;100416.56;5469654;25;94757;-73
2024/04/19 06:07:31;;;;;;;9.27;3.35;;;;;;;11.64;65.38;100414.91;5472193;25;95006;-72
2024/04/19 06:09:59;;;;;;;7.43;3.75;;;;;;;11.64;66.04;100417.56;5475658;25;99870;-73
2024/04/19 06:12:27;;;;;;;7.68;3.00;;;;;;;11.61;65.87;100407.13;5472378;25;97525;-72
2024/04/19 06:14:58;;;;;;;6.13;3.08;;;;;;;10.80;68.42;100415.06;5461082;25;94718;-73
2024/04/19 06:17:29;;;;;;;7.40;3.20;;;;;;;10.54;68.11;100412.63;5463628;25;94878;-73
2024/04/19 06:19:57;;;;;;;10.55;2.63;;;;;;;10.11;70.54;100394.97;5477997;25;96289;-72
2024/04/19 06:22:25;;;;;;;7.40;3.30;;;;;;;10.54;69.74;100396.78;5475152;25;94763;-73
2024/04/19 06:24:53;;;;;;;9.45;3.17;;;;;;;10.53;69.61;100389.78;5476372;25;95533;-73
2024/04/19 06:27:21;;;;;;;7.45;4.03;;;;;;;10.65;70.56;100381.34;5473388;25;94902;-73
2024/04/19 06:29:51;;;;;;;6.80;4.20;;;;;;;10.89;67.23;100384.75;5466221;25;95781;-76
2024/04/19 06:32:20;;;;;;;12.27;5.93;;;;;;;10.81;69.61;100378.94;5474830;25;97871;-74
2024/04/19 06:34:53;;;;;;;9.65;3.72;;;;;;;10.95;68.66;100368.63;5482675;25;94930;-74
2024/04/19 06:37:21;;;;;;;9.13;3.83;;;;;;;10.53;67.27;100372.16;5476456;25;94815;-74
2024/04/19 06:39:49;;;;;;;8.77;3.67;;;;;;;10.61;68.11;100363.91;5466278;25;97679;-73
2024/04/19 06:42:18;;;;;;;9.77;3.47;;;;;;;9.78;70.87;100361.03;5464020;25;97071;-74
2024/04/19 06:44:46;;;;;;;5.45;3.17;;;;;;;9.94;71.22;100351.59;5475826;25;95069;-73
2024/04/19 06:47:15;;;;;;;8.27;3.28;;;;;;;9.79;71.29;100349.56;5468708;25;95308;-73
2024/04/19 06:49:43;;;;;;;5.03;3.30;;;;;;;9.65;72.28;100354.50;5478153;25;96988;-73
2024/04/19 06:52:14;;;;;;;7.10;2.72;;;;;;;9.68;71.59;100354.38;5478909;25;97034;-73
2024/04/19 06:54:42;;;;;;;6.85;3.38;;;;;;;9.82;72.04;100351.22;5470043;25;94838;-74
2024/04/19 06:57:10;;;;;;;4.22;3.38;;;;;;;9.57;72.76;100330.19;5461000;25;95016;-73
2024/04/19 06:59:38;;;;;;;7.00;3.25;;;;;;;9.57;74.23;100331.06;5477557;25;100072;-74
2024/04/19 07:02:06;;;;;;;7.85;3.80;;;;;;;9.93;72.59;100341.97;5465968;25;96166;-73
2024/04/19 07:04:34;;;;;;;4.47;3.40;;;;;;;9.67;73.72;100326.28;5480782;25;95062;-73
2024/04/19 07:07:02;;;;;;;5.28;3.50;;;;;;;10.20;72.48;100320.69;5480987;25;94853;-74
2024/04/19 07:09:33;;;;;;;5.00;3.50;;;;;;;10.37;71.29;100312.97;5480502;25;94782;-74
2024/04/19 07:12:01;;;;;;;7.10;3.45;;;;;;;10.01;71.50;100317.91;5462979;25;95555;-77
2024/04/19 07:14:29;;;;;;;5.28;3.33;;;;;;;9.79;73.29;100311.75;5483220;25;95266;-77
2024/04/19 07:16:57;;;;;;;6.35;3.28;;;;;;;9.92;73.80;100311.22;5471177;25;95401;-77
2024/04/19 07:19:25;;;;;;;5.78;3.33;;;;;;;10.00;73.23;100303.00;5467192;25;95472;-79
2024/04/19 07:21:54;;;;;;;6.68;3.22;;;;;;;9.79;73.46;100288.88;5480762;25;97879;-76
2024/04/19 07:24:22;;;;;;;4.15;3.13;;;;;;;10.18;72.31;100283.78;5478399;25;95138;-78
2024/04/19 07:26:53;;;;;;;5.55;2.90;;;;;;;10.24;70.77;100280.91;5475173;25;95280;-77
2024/04/19 07:29:21;;;;;;;5.53;2.90;;;;;;;10.26;71.40;100271.13;5471495;25;97383;-77
2024/04/19 07:31:49;;;;;;;5.22;2.92;;;;;;;10.04;71.04;100266.78;5472549;25;97364;-78
2024/04/19 07:34:17;;;;;;;7.97;3.28;;;;;;;10.61;71.64;100258.22;5475564;25;94750;-77
2024/04/19 07:36:45;;;;;;;4.38;3.25;;;;;;;11.09;69.40;100244.63;5466459;25;94982;-76
2024/04/19 07:39:13;;;;;;;4.72;3.20;;;;;;;11.33;68.08;100247.91;5472822;25;99238;-76
2024/04/19 07:41:42;;;;;;;7.03;3.78;;;;;;;11.86;68.17;100243.63;5476812;25;97358;-77
2024/04/19 07:44:13;;;;;;;7.45;3.30;;;;;;;11.75;66.73;100234.50;5474143;25;95141;-77
2024/04/19 07:46:41;;;;;;;4.25;3.00;;;;;;;11.96;65.52;100221.06;5478752;25;94645;-77
2024/04/19 07:49:09;;;;;;;6.25;3.88;;;;;;;11.67;65.97;100229.53;5466159;25;94904;-77
2024/04/19 07:51:37;;;;;;;8.68;4.65;;;;;;;11.62;65.42;100217.47;5486098;25;97187;-78
2024/04/19 07:54:07;;;;;;;8.88;4.70;;;;;;;11.40;66.09;100215.81;5475090;25;95713;-78
2024/04/19 07:56:35;;;;;;;6.22;3.10;;;;;;;11.18;67.26;100220.38;5486093;25;94911;-78
2024/04/19 07:59:04;;;;;;;5.57;2.63;;;;;;;10.93;67.66;100211.88;5474038;25;95568;-77
2024/04/19 08:01:35;;;;;;;6.60;2.80;;;;;;;10.61;69.56;100211.53;5476245;25;95389;-78
2024/04/19 08:04:03;;;;;;;5.70;2.72;;;;;;;10.84;68.80;100201.69;5473138;25;94876;-77
2024/04/19 08:06:31;;;;;;;8.20;2.88;;;;;;;10.99;68.03;100196.59;5482911;25;94930;-78
2024/04/19 08:08:59;;;;;;;4.22;3.05;;;;;;;10.91;68.05;100188.16;5472304;25;97519;-78
2024/04/19 08:11:27;;;;;;;7.45;2.92;;;;;;;11.15;67.64;100187.03;5476873;25;96871;-77
2024/04/19 08:13:59;;;;;;;4.00;3.15;;;;;;;11.12;67.43;100187.16;5477925;25;95248;-77
2024/04/19 08:16:27;;;;;;;5.32;2.70;;;;;;;11.21;67.48;100185.03;5466679;25;96527;-78
2024/04/19 08:19:00;;;;;;;5.53;2.45;;;;;;;10.95;67.81;100173.00;5465466;25;96201;-77
2024/04/19 08:21:28;;;;;;;4.65;3.40;;;;;;;11.35;67.66;100164.06;5481764;25;95722;-77
2024/04/19 08:23:56;;;;;;;7.05;3.33;;;;;;;11.36;66.78;100158.69;5480724;25;95196;-79
2024/04/19 08:26:25;;;;;;;3.58;3.13;;;;;;;10.37;70.50;100165.06;5480572;25;95646;-78
2024/04/19 08:28:53;;;;;;;6.13;3.17;;;;;;;10.84;70.13;100157.63;5466208;25;96846;-77
2024/04/19 08:31:21;;;;;;;8.50;3.83;;;;;;;10.83;70.32;100144.50;5479595;25;95684;-76
2024/04/19 08:33:49;;;;;;;10.27;4.95;;;;;;;11.18;70.33;100139.28;5479615;25;95223;-77
2024/04/19 08:36:21;;;;;;;6.55;4.30;;;;;;;11.35;69.43;100130.56;5481474;25;94919;-78
2024/04/19 08:38:49;;;;;;;4.85;3.40;;;;;;;11.46;68.62;100138.81;5475804;25;96094;-79
2024/04/19 08:41:19;;;;;;;7.43;3.90;;;;;;;11.38;67.84;100125.09;5471625;25;98665;-78
2024/04/19 08:43:47;;;;;;;6.57;4.18;;;;;;;10.95;69.89;100134.22;5475725;25;95329;-76
2024/04/19 08:46:16;;;;;;;6.95;4.07;;;;;;;11.01;70.37;100120.72;5468776;25;94880;-78
2024/04/19 08:48:46;;;;;;;5.38;3.78;;;;;;;11.21;69.57;100118.91;5475881;25;95441;-76
2024/04/19 08:51:17;;;;;;;6.72;3.92;;;;;;;10.59;72.33;100120.03;5485787;25;96034;-78
2024/04/19 08:53:49;;;;;;;5.20;4.20;;;;;;;10.93;72.29;100111.41;5471839;25;96562;-77
2024/04/19 08:56:18;;;;;;;7.57;4.50;;;;;;;11.14;71.20;100097.19;5485327;25;94951;-78
2024/04/19 08:58:46;;;;;;;5.38;4.55;;;;;;;11.62;69.18;100093.09;5482299;25;97821;-77
2024/04/19 09:01:15;;;;;;;6.90;4.03;;;;;;;11.73;68.60;100093.41;5483497;25;95802;-78
2024/04/19 09:03:46;;;;;;;4.60;4.10;;;;;;;11.98;69.20;100086.81;5476153;25;95150;-76
2024/04/19 09:06:15;;;;;;;11.05;4.57;;;;;;;12.05;66.39;100083.84;5487435;25;94761;-77
2024/04/19 09:08:44;;;;;;;10.80;4.85;;;;;;;12.00;66.96;100084.09;5482238;25;100087;-78
2024/04/19 09:11:17;;;;;;;7.15;4.53;;;;;;;11.38;70.66;100076.63;5475835;25;96156;-78
2024/04/19 09:13:47;;;;;;;7.05;4.38;;;;;;;11.48;70.10;100073.47;5475809;25;94736;-77
2024/04/19 09:16:16;;;;;;;9.15;4.07;;;;;;;11.55;70.71;100068.72;5473834;25;94902;-77
2024/04/19 09:18:50;;;;;;;7.38;4.93;;;;;;;11.65;70.26;100063.81;5480572;25;97100;-77
2024/04/19 09:21:18;;;;;;;4.82;4.13;;;;;;;11.13;72.56;100061.09;5476528;25;98914;-77
2024/04/19 09:23:46;;;;;;;7.00;4.20;;;;;;;11.11;73.67;100068.25;5479479;25;95108;-77
2024/04/19 09:26:20;;;;;;;7.65;4.68;;;;;;;11.25;73.35;100057.00;5481110;25;95117;-79
2024/04/19 09:28:49;;;;;;;8.13;5.00;;;;;;;11.48;72.40;100052.31;5470474;25;99254;-78
2024/04/19 09:31:18;;;;;;;7.45;5.13;;;;;;;11.54;72.92;100057.28;5471035;25;96901;-77
2024/04/19 09:33:46;;;;;;;4.75;4.18;;;;;;;11.15;73.90;100048.66;5476670;25;94988;-76
2024/04/19 09:36:18;;;;;;;7.00;4.68;;;;;;;11.66;72.63;100042.56;5477266;25;94940;-77
2024/04/19 09:38:46;;;;;;;7.10;5.05;;;;;;;11.87;72.81;100048.59;5471173;25;97429;-78
2024/04/19 09:41:18;;;;;;;10.45;5.20;;;;;;;11.48;73.30;100040.84;5477829;25;97262;-77
2024/04/19 09:43:50;;;;;;;10.73;4.35;;;;;;;11.34;74.68;100033.59;5467172;25;95329;-77
2024/04/19 09:46:23;;;;;;;4.70;3.80;;;;;;;11.16;75.87;100029.19;5479780;25;94771;-77
2024/04/19 09:48:54;;;;;;;5.40;4.10;;;;;;;11.05;74.49;100031.53;5473025;25;95664;-77
2024/04/19 09:51:22;;;;;;;4.85;4.32;;;;;;;10.45;79.33;100030.84;5476966;25;97724;-76
2024/04/19 09:53:52;;;;;;;4.60;3.13;;;;;;;9.88;80.73;100027.25;5468845;25;94803;-77
2024/04/19 09:56:32;;;;;;;6.82;3.30;;;;;;;9.85;82.68;100024.72;5465755;25;95158;-77
2024/04/19 09:59:01;;;;;;;5.22;3.22;;;;;;;10.15;81.52;100013.75;5471679;25;95712;-77
2024/04/19 10:01:31;;;;;;;3.70;2.95;;;;;;;10.42;79.98;100014.31;5471499;25;99298;-73
2024/04/19 10:04:03;;;;;;;6.03;3.55;;;;;;;10.50;80.16;100002.44;5474765;25;95343;-73
2024/04/19 10:06:35;;;;;;;3.95;3.10;;;;;;;10.93;78.53;100008.34;5462021;25;94663;-73
2024/04/19 10:09:08;;;;;;;3.38;2.63;;;;;;;10.72;78.56;99995.22;5476057;25;97562;-74
2024/04/19 10:11:43;;;;;;;4.55;2.70;;;;;;;11.07;77.95;99996.16;5468642;25;97781;-73
2024/04/19 10:14:12;;;;;;;3.65;2.42;;;;;;;11.03;75.95;99999.00;5485446;25;95179;-73
2024/04/19 10:16:40;;;;;;;5.22;2.30;;;;;;;10.74;76.86;99985.44;5467742;25;94813;-72
2024/04/19 10:19:09;;;;;;;3.17;1.85;;;;;;;10.35;76.81;99987.31;5477605;25;99933;-73
2024/04/19 10:21:39;;;;;;;2.30;1.92;;;;;;;9.79;80.02;99997.75;5467680;25;97677;-74
2024/04/19 10:24:17;;;;;;;4.03;2.08;;;;;;;10.12;81.50;99995.41;5471541;25;95920;-73
2024/04/19 10:26:53;;;;;;;5.82;2.47;;;;;;;10.05;80.88;99986.03;5465713;25;94822;-73
2024/04/19 10:29:22;;;;;;;4.43;1.80;;;;;;;10.19;78.87;99991.59;5463687;25;95806;-74
2024/04/19 10:31:52;;;;;;;2.00;1.80;;;;;;;10.10;79.75;99977.00;5475234;25;95630;-74
2024/04/19 10:34:21;;;;;;;3.28;1.50;;;;;;;9.96;79.85;99984.69;5464577;25;94815;-73
2024/04/19 10:36:49;;;;;;;3.03;1.77;;;;;;;9.66;82.14;99986.88;5463685;25;95041;-73
2024/04/19 10:39:18;;;;;;;2.38;1.67;;;;;;;9.89;82.30;99973.56;5476524;25;97666;-74
2024/04/19 10:41:52;;;;;;;2.92;1.80;;;;;;;10.23;80.06;99965.00;5473878;25;96061;-74
2024/04/19 10:44:21;;;;;;;3.45;1.80;;;;;;;10.13;80.52;99961.00;5471805;25;94670;-73
2024/04/19 10:46:51;;;;;;;2.55;1.92;;;;;;;10.58;79.91;99957.16;5481148;25;95047;-73
2024/04/19 10:49:21;;;;;;;2.42;1.60;;;;;;;10.55;76.81;99947.63;5464756;25;99239;-73
2024/04/19 10:51:49;;;;;;;1.83;1.63;;;;;;;10.80;78.06;99947.28;5474447;25;95891;-72
2024/04/19 10:54:20;;;;;;;1.60;1.50;;;;;;;11.01;76.48;99945.38;5484801;25;94702;-73
2024/04/19 10:56:49;;;;;;;2.28;1.50;;;;;;;10.87;77.91;99945.19;5477710;25;95254;-73
2024/04/19 10:59:17;;;;;;;2.85;1.75;;;;;;;10.68;79.48;99943.47;5476596;25;96304;-74
2024/04/19 11:01:45;;;;;;;3.05;1.77;;;;;;;10.73;78.06;99940.59;5476401;25;97323;-74
2024/04/19 11:04:14;;;;;;;2.30;1.60;;;;;;;10.35;80.55;99942.44;5475963;25;95685;-72
2024/04/19 11:06:42;;;;;;;2.35;1.58;;;;;;;10.54;79.85;99927.41;5474404;25;95037;-73
2024/04/19 11:09:11;;;;;;;3.00;1.60;;;;;;;10.37;81.49;99924.75;5476249;25;95641;-75
2024/04/19 11:11:42;;;;;;;1.92;1.80;;;;;;;10.35;81.87;99923.94;5475739;25;99317;-72
2024/04/19 11:14:13;;;;;;;4.65;1.65;;;;;;;9.92;83.06;99931.19;5485818;25;95527;-74
2024/04/19 11:16:41;;;;;;;3.22;0.93;;;;;;;8.75;87.36;99938.06;5481101;25;95180;-74
2024/04/19 11:19:09;;;;;;;0.70;0.60;;;;;;;8.89;86.15;99930.44;5463734;25;97189;-73
2024/04/19 11:21:38;;;;;;;0.50;0.50;;;;;;;8.85;85.13;99920.97;5474398;25;97809;-78
2024/04/19 11:24:07;;;;;;;1.65;0.40;;;;;;;8.32;88.20;99936.28;5465173;25;94638;-77
2024/04/19 11:26:35;;;;;;;0.80;0.30;;;;;;;7.74;90.58;99934.97;5475312;25;95564;-79
2024/04/19 11:29:03;;;;;;;2.40;0.50;;;;;;;8.17;88.82;99929.81;5472773;25;99064;-78
2024/04/19 11:31:34;;;;;;;0.43;0.30;;;;;;;8.08;88.26;99929.28;5480844;25;96896;-78
2024/04/19 11:34:02;;;;;;;1.02;0.43;;;;;;;8.60;87.04;99928.16;5472353;25;95456;-77
2024/04/19 11:36:30;;;;;;;0.85;0.40;;;;;;;9.27;86.19;99920.06;5481523;25;95240;-77
2024/04/19 11:38:59;;;;;;;0.63;0.35;;;;;;;9.58;85.04;99910.72;5481415;25;95028;-78
2024/04/19 11:41:27;;;;;;;0.45;0.40;;;;;;;9.99;81.94;99906.22;5478765;25;95790;-78